createdAt,value
2023-05-21T00:00:17.662Z,27.00
2023-05-21T00:05:21.709Z,26.25
2023-05-21T00:10:26.613Z,27.50
2023-05-21T00:15:29.605Z,26.75
2023-05-21T00:20:33.165Z,23.00
2023-05-21T00:25:37.402Z,23.00
2023-05-21T00:30:41.058Z,24.40
2023-05-21T00:35:43.960Z,27.00
2023-05-21T00:40:48.173Z,27.40
2023-05-21T00:45:53.742Z,26.00
2023-05-21T00:50:56.604Z,22.60
2023-05-21T00:56:00.813Z,22.60
2023-05-21T01:01:06.730Z,25.00
2023-05-21T01:06:10.305Z,22.80
2023-05-21T01:11:15.056Z,25.60
2023-05-21T01:16:18.151Z,24.20
2023-05-21T01:21:21.648Z,25.60
2023-05-21T01:26:26.243Z,26.00
2023-05-21T01:31:30.355Z,26.00
2023-05-21T01:36:35.982Z,23.80
2023-05-21T01:41:41.856Z,25.00
2023-05-21T01:46:44.736Z,22.80
2023-05-21T01:51:47.601Z,25.40
2023-05-21T01:56:51.724Z,23.80
2023-05-21T02:01:54.676Z,23.20
2023-05-21T02:06:57.569Z,21.80
2023-05-21T02:12:02.216Z,25.80
2023-05-21T02:17:05.176Z,20.60
2023-05-21T02:22:08.180Z,23.00
2023-05-21T02:27:13.621Z,21.80
2023-05-21T02:32:17.026Z,21.40
2023-05-21T02:37:20.149Z,21.20
2023-05-21T02:42:24.447Z,19.80
2023-05-21T02:47:27.587Z,19.80
2023-05-21T02:52:30.473Z,22.40
2023-05-21T02:57:34.700Z,20.20
2023-05-21T03:02:37.651Z,20.00
2023-05-21T03:07:41.837Z,20.40
2023-05-21T03:12:46.033Z,21.60
2023-05-21T03:17:48.943Z,19.60
2023-05-21T03:22:52.767Z,21.60
2023-05-21T03:27:57.105Z,19.40
2023-05-21T03:33:21.786Z,20.40
2023-05-21T03:38:24.832Z,21.60
2023-05-21T03:43:29.736Z,19.40
2023-05-21T03:48:32.655Z,20.60
2023-05-21T03:53:37.032Z,21.40
2023-05-21T03:58:41.541Z,19.20
2023-05-21T04:03:44.861Z,18.60
2023-05-21T04:08:48.084Z,20.40
2023-05-21T04:13:52.819Z,20.00
2023-05-21T04:18:56.421Z,20.20
2023-05-21T04:24:02.154Z,20.40
2023-05-21T04:29:42.486Z,18.00
2023-05-21T04:34:45.627Z,19.20
2023-05-21T04:39:48.469Z,16.80
2023-05-21T04:44:55.541Z,19.80
2023-05-21T04:49:59.338Z,19.20
2023-05-21T04:55:03.810Z,18.60
2023-05-21T05:00:10.348Z,18.40
2023-05-21T05:05:17.531Z,20.00
2023-05-21T05:10:20.409Z,19.60
2023-05-21T05:15:25.142Z,19.40
2023-05-21T05:20:28.236Z,18.60
2023-05-21T05:25:31.391Z,19.00
2023-05-21T05:30:36.356Z,17.40
2023-05-21T05:35:50.969Z,19.00
2023-05-21T05:40:54.025Z,20.60
2023-05-21T05:46:00.118Z,19.40
2023-05-21T05:51:03.128Z,17.60
2023-05-21T05:56:08.321Z,20.00
2023-05-21T06:01:14.376Z,19.00
2023-05-21T06:06:18.012Z,20.60
2023-05-21T06:11:21.584Z,19.80
2023-05-21T06:16:25.847Z,19.20
2023-05-21T06:21:29.243Z,18.60
2023-05-21T06:26:32.376Z,17.80
2023-05-21T06:31:37.516Z,18.40
2023-05-21T06:36:40.526Z,20.80
2023-05-21T06:41:43.466Z,20.20
2023-05-21T06:47:06.723Z,17.60
2023-05-21T06:52:09.633Z,17.80
2023-05-21T06:57:12.680Z,21.60
2023-05-21T07:02:17.313Z,18.00
2023-05-21T07:07:20.277Z,19.00
2023-05-21T07:12:23.639Z,38.50
2023-05-21T07:17:28.242Z,41.67
2023-05-21T07:22:31.428Z,42.33
2023-05-21T07:27:34.343Z,44.00
2023-05-21T07:32:38.814Z,41.00
2023-05-21T07:37:41.893Z,41.00
2023-05-21T07:42:45.575Z,42.00
2023-05-21T07:47:51.903Z,42.50
2023-05-21T07:52:55.394Z,41.00
2023-05-21T07:57:58.549Z,41.00
2023-05-21T08:03:07.250Z,41.00
2023-05-21T08:08:10.368Z,41.50
2023-05-21T08:13:13.436Z,39.50
2023-05-21T08:18:18.446Z,40.25
2023-05-21T08:23:22.751Z,40.25
2023-05-21T08:28:29.849Z,43.00
2023-05-21T08:33:37.064Z,42.25
2023-05-21T08:38:40.875Z,42.25
2023-05-21T08:43:57.573Z,41.67
2023-05-21T08:49:04.684Z,38.75
2023-05-21T08:54:09.092Z,39.25
2023-05-21T08:59:11.966Z,40.50
2023-05-21T09:04:21.289Z,39.75
2023-05-21T09:09:31.593Z,40.25
2023-05-21T09:14:34.490Z,40.25
2023-05-21T09:20:12.523Z,39.25
2023-05-21T09:25:22.328Z,40.25
2023-05-21T09:30:27.817Z,37.50
2023-05-21T09:35:36.161Z,38.25
2023-05-21T09:40:40.499Z,39.50
2023-05-21T09:45:51.783Z,38.50
2023-05-21T09:50:56.135Z,38.00
2023-05-21T09:55:59.016Z,38.75
2023-05-21T10:01:01.843Z,37.00
2023-05-21T10:06:06.493Z,37.50
2023-05-21T10:11:09.496Z,37.00
2023-05-21T10:16:12.758Z,38.00
2023-05-21T10:21:17.088Z,38.25
2023-05-21T10:26:21.494Z,38.50
2023-05-21T10:31:24.540Z,32.50
2023-05-21T10:36:29.590Z,35.00
2023-05-21T10:41:35.008Z,36.25
2023-05-21T10:47:08.608Z,35.00
2023-05-21T10:52:19.951Z,35.00
2023-05-21T10:57:44.448Z,38.25
2023-05-21T11:02:47.462Z,35.75
2023-05-21T11:07:56.368Z,37.50
2023-05-21T11:13:14.874Z,37.75
2023-05-21T11:18:18.222Z,37.50
2023-05-21T11:23:23.209Z,35.75
2023-05-21T11:28:35.410Z,36.75
2023-05-21T11:33:38.288Z,34.50
2023-05-21T11:38:42.483Z,30.75
2023-05-21T11:43:45.364Z,34.00
2023-05-21T11:48:48.166Z,34.25
2023-05-21T11:53:52.367Z,36.75
2023-05-21T11:58:55.872Z,30.50
2023-05-21T12:03:58.823Z,33.50
2023-05-21T12:09:04.609Z,31.00
2023-05-21T12:14:09.216Z,32.50
2023-05-21T12:19:12.134Z,30.75
2023-05-21T12:24:16.496Z,32.25
2023-05-21T12:29:20.347Z,29.80
2023-05-21T12:34:39.508Z,32.25
2023-05-21T12:39:44.693Z,28.50
2023-05-21T12:44:51.585Z,30.00
2023-05-21T12:49:56.406Z,45.50
2023-05-21T12:55:00.896Z,44.00
2023-05-21T13:00:06.523Z,54.00
2023-05-21T13:05:10.251Z,53.33
2023-05-21T13:10:14.607Z,50.00
2023-05-21T13:15:17.547Z,45.67
2023-05-21T13:20:21.856Z,45.33
2023-05-21T13:25:28.831Z,44.00
2023-05-21T13:30:33.319Z,42.00
2023-05-21T13:35:36.378Z,43.67
2023-05-21T13:40:41.434Z,42.00
2023-05-21T13:45:52.571Z,41.00
2023-05-21T13:50:55.436Z,44.33
2023-05-21T13:55:59.719Z,42.00
2023-05-21T14:01:02.920Z,40.75
2023-05-21T14:06:08.299Z,41.00
2023-05-21T14:11:12.439Z,38.50
2023-05-21T14:16:15.399Z,38.75
2023-05-21T14:21:18.466Z,37.75
2023-05-21T14:26:22.607Z,38.00
2023-05-21T14:31:25.797Z,37.25
2023-05-21T14:36:28.906Z,37.25
2023-05-21T14:41:33.170Z,36.25
2023-05-21T14:46:36.837Z,36.75
2023-05-21T14:51:40.666Z,34.00
2023-05-21T14:56:45.008Z,38.00
2023-05-21T15:01:49.455Z,35.75
2023-05-21T15:06:52.455Z,32.00
2023-05-21T15:11:56.647Z,33.25
2023-05-21T15:16:59.492Z,35.25
2023-05-21T15:22:02.728Z,32.50
2023-05-21T15:27:07.667Z,31.75
2023-05-21T15:32:10.743Z,26.75
2023-05-21T15:37:15.344Z,30.25
2023-05-21T15:42:26.267Z,32.75
2023-05-21T15:47:29.286Z,30.00
2023-05-21T15:52:32.773Z,28.75
2023-05-21T15:57:37.070Z,29.75
2023-05-21T16:02:40.923Z,29.50
2023-05-21T16:07:44.468Z,26.75
2023-05-21T16:12:48.871Z,27.25
2023-05-21T16:17:51.865Z,28.50
2023-05-21T16:22:54.779Z,28.00
2023-05-21T16:27:59.000Z,28.00
2023-05-21T16:33:01.901Z,26.25
2023-05-21T16:38:04.764Z,25.25
2023-05-21T16:43:08.967Z,28.25
2023-05-21T16:48:12.798Z,23.50
2023-05-21T16:53:16.257Z,23.40
2023-05-21T16:58:20.432Z,27.25
2023-05-21T17:03:23.498Z,24.75
2023-05-21T17:08:26.304Z,23.80
2023-05-21T17:13:30.782Z,23.80
2023-05-21T17:18:33.739Z,23.00
2023-05-21T17:23:36.577Z,23.60
2023-05-21T17:28:40.768Z,24.25
2023-05-21T17:33:43.657Z,25.40
2023-05-21T17:38:46.903Z,23.00
2023-05-21T17:43:51.333Z,25.00
2023-05-21T17:48:54.111Z,24.20
2023-05-21T17:53:57.494Z,21.80
2023-05-21T17:59:01.847Z,20.80
2023-05-21T18:04:05.138Z,22.40
2023-05-21T18:09:10.431Z,21.60
2023-05-21T18:14:14.780Z,22.20
2023-05-21T18:19:17.716Z,22.00
2023-05-21T18:24:20.688Z,23.50
2023-05-21T18:29:24.972Z,25.40
2023-05-21T18:34:27.787Z,22.20
2023-05-21T18:39:30.710Z,26.25
2023-05-21T18:44:35.017Z,23.75
2023-05-21T18:49:37.980Z,25.80
2023-05-21T18:54:40.923Z,25.40
2023-05-21T18:59:45.314Z,26.40
2023-05-21T19:04:48.744Z,22.20
2023-05-21T19:09:52.732Z,26.80
2023-05-21T19:14:56.984Z,22.75
2023-05-21T19:20:00.087Z,25.80
2023-05-21T19:25:03.013Z,23.80
2023-05-21T19:30:09.635Z,26.75
2023-05-21T19:35:12.440Z,24.75
2023-05-21T19:40:17.546Z,26.50
2023-05-21T19:45:22.276Z,23.25
2023-05-21T19:50:25.219Z,22.50
2023-05-21T19:55:28.437Z,25.00
2023-05-21T20:00:33.278Z,24.80
2023-05-21T20:05:36.163Z,24.00
2023-05-21T20:10:40.360Z,24.40
2023-05-21T20:15:44.807Z,21.00
2023-05-21T20:20:47.669Z,26.00
2023-05-21T20:25:50.992Z,23.40
2023-05-21T20:30:57.624Z,22.00
2023-05-21T20:36:00.670Z,21.60
2023-05-21T20:41:03.704Z,23.25
2023-05-21T20:46:08.051Z,23.00
2023-05-21T20:51:11.197Z,22.60
2023-05-21T20:56:16.998Z,23.20
2023-05-21T21:01:24.207Z,22.60
2023-05-21T21:06:30.023Z,24.75
2023-05-21T21:11:33.066Z,25.60
2023-05-21T21:16:37.268Z,22.25
2023-05-21T21:21:40.406Z,23.00
2023-05-21T21:26:43.623Z,20.75
2023-05-21T21:31:47.987Z,22.40
2023-05-21T21:36:51.176Z,25.60
2023-05-21T21:41:54.045Z,21.20
2023-05-21T21:46:58.255Z,24.00
2023-05-21T21:52:01.398Z,22.60
2023-05-21T21:57:04.656Z,22.00
2023-05-21T22:02:08.855Z,24.20
2023-05-21T22:07:17.781Z,23.00
2023-05-21T22:12:20.929Z,24.00
2023-05-21T22:17:25.384Z,22.00
2023-05-21T22:22:28.229Z,22.40
2023-05-21T22:27:31.032Z,21.00
2023-05-21T22:32:35.216Z,21.00
2023-05-21T22:37:38.250Z,23.00
2023-05-21T22:42:41.209Z,21.40
2023-05-21T22:47:45.393Z,22.60
2023-05-21T22:52:48.177Z,22.80
2023-05-21T22:57:50.928Z,23.20
2023-05-21T23:02:55.213Z,22.20
2023-05-21T23:07:58.067Z,21.60
2023-05-21T23:13:00.910Z,21.00
2023-05-21T23:18:05.098Z,19.20
2023-05-21T23:23:08.014Z,21.80
2023-05-21T23:28:10.817Z,22.00
2023-05-21T23:33:15.037Z,18.00
2023-05-21T23:38:17.901Z,22.00
2023-05-21T23:43:20.751Z,19.00
2023-05-21T23:48:25.523Z,21.00
2023-05-21T23:53:28.314Z,19.00
2023-05-21T23:58:31.114Z,20.00
